Time;durP1;ratioP1;P1;durP2;ratioP2;P2;SDS_P1;SDS_P2;PMS_P1;PMS_P2;Temp;Humidity;BMP_temperature;BMP_pressure;BME280_temperature;BME280_humidity;BME280_pressure;Samples;Min_cycle;Max_cycle;Signal;HPM_P1;HPM_P2
2022/11/14 00:00:49;;;;;;;8.60;6.30;;;;;;;5.18;81.18;101525.75;5008361;28;20047;-71
2022/11/14 00:03:35;;;;;;;9.30;6.25;;;;;;;5.15;80.89;101523.13;5007779;28;20061;-70
2022/11/14 00:06:20;;;;;;;8.02;6.47;;;;;;;5.14;81.36;101521.38;5027752;28;21007;-70
2022/11/14 00:09:06;;;;;;;9.35;6.32;;;;;;;5.09;81.37;101515.28;5009962;28;20050;-70
2022/11/14 00:11:51;;;;;;;8.70;6.68;;;;;;;5.04;81.61;101512.66;5032666;28;20096;-70
2022/11/14 00:14:37;;;;;;;10.80;6.82;;;;;;;5.00;81.64;101507.41;5018599;28;20060;-70
2022/11/14 00:17:22;;;;;;;12.18;6.90;;;;;;;4.94;81.95;101503.88;5011558;28;20046;-71
2022/11/14 00:20:10;;;;;;;10.88;6.68;;;;;;;4.92;82.09;101503.03;5014724;28;20863;-71
2022/11/14 00:22:56;;;;;;;8.80;6.88;;;;;;;4.87;82.31;101498.66;5023365;28;20574;-71
2022/11/14 00:25:44;;;;;;;10.20;7.70;;;;;;;4.81;82.45;101494.28;5007788;28;20042;-71
2022/11/14 00:28:29;;;;;;;12.02;7.10;;;;;;;4.78;82.59;101494.25;5011826;28;20045;-71
2022/11/14 00:31:16;;;;;;;10.93;7.72;;;;;;;4.73;82.78;101488.16;5011347;28;20053;-71
2022/11/14 00:34:01;;;;;;;11.20;8.00;;;;;;;4.70;83.01;101491.59;5023516;28;20065;-71
2022/11/14 00:36:47;;;;;;;10.07;7.68;;;;;;;4.68;83.14;101489.84;5031321;28;20092;-71
2022/11/14 00:39:32;;;;;;;10.52;8.05;;;;;;;4.66;83.50;101484.63;5011727;28;20053;-74
2022/11/14 00:42:18;;;;;;;9.75;7.68;;;;;;;4.64;83.48;101481.13;5015030;28;20054;-75
2022/11/14 00:45:05;;;;;;;12.10;8.32;;;;;;;4.61;83.63;101476.78;5012552;28;20520;-65
2022/11/14 00:47:51;;;;;;;10.38;7.65;;;;;;;4.60;83.95;101471.53;5009740;28;20049;-65
2022/11/14 00:50:36;;;;;;;12.00;8.63;;;;;;;4.56;84.03;101468.03;5006490;28;20069;-64
2022/11/14 00:53:22;;;;;;;11.35;8.45;;;;;;;4.52;84.02;101468.91;5023848;28;20668;-65
2022/11/14 00:56:09;;;;;;;11.82;8.18;;;;;;;4.47;84.21;101465.38;5012099;28;20046;-65
2022/11/14 00:58:55;;;;;;;12.05;8.30;;;;;;;4.44;84.35;101460.13;5011852;28;20050;-65
2022/11/14 01:01:41;;;;;;;11.60;8.93;;;;;;;4.42;84.47;101467.09;5016619;28;20042;-65
2022/11/14 01:04:27;;;;;;;12.82;9.05;;;;;;;4.42;84.39;101461.88;5016084;28;20606;-64
2022/11/14 01:07:12;;;;;;;14.13;9.70;;;;;;;4.41;84.58;101465.34;5032497;28;20506;-65
2022/11/14 01:09:58;;;;;;;15.60;10.68;;;;;;;4.39;84.70;101464.47;5006731;28;20137;-65
2022/11/14 01:12:43;;;;;;;13.15;9.43;;;;;;;4.36;84.94;101452.28;5012468;28;20574;-65
2022/11/14 01:15:29;;;;;;;13.75;10.13;;;;;;;4.32;84.78;101466.19;5019703;28;20259;-65
2022/11/14 01:18:19;;;;;;;14.23;10.20;;;;;;;4.26;84.99;101460.94;5008986;28;20562;-65
2022/11/14 01:21:11;;;;;;;15.02;9.45;;;;;;;4.24;84.93;101454.81;5018946;28;20467;-65
2022/11/14 01:23:57;;;;;;;14.77;10.55;;;;;;;4.19;85.34;101452.19;5004554;28;20046;-70
2022/11/14 01:26:42;;;;;;;14.57;10.50;;;;;;;4.16;85.31;101463.50;5005534;28;20431;-70
2022/11/14 01:29:28;;;;;;;15.68;10.80;;;;;;;4.14;85.46;101460.00;5013182;28;20046;-70
2022/11/14 01:32:17;;;;;;;14.90;10.90;;;;;;;4.11;85.67;101457.34;5017433;28;20083;-70
2022/11/14 01:35:03;;;;;;;15.75;11.18;;;;;;;4.06;85.69;101439.91;5009006;28;20073;-70
2022/11/14 01:37:49;;;;;;;17.02;10.98;;;;;;;4.00;85.64;101438.13;5017864;28;20749;-70
2022/11/14 01:40:41;;;;;;;17.67;12.00;;;;;;;3.94;85.92;101433.75;5024179;28;20046;-70
2022/11/14 01:43:34;;;;;;;16.13;11.70;;;;;;;3.92;86.09;101427.63;5019889;28;20050;-71
2022/11/14 01:46:29;;;;;;;16.70;11.65;;;;;;;3.86;86.17;101423.28;5023678;28;20177;-71
2022/11/14 01:49:24;;;;;;;15.45;11.57;;;;;;;3.82;86.36;101416.28;5005640;28;20149;-73
2022/11/14 01:52:14;;;;;;;;;;;;;;;3.77;86.55;101417.13;5011678;28;20144;-73
2022/11/14 01:55:05;;;;;;;17.45;12.07;;;;;;;3.71;86.34;101415.34;5008841;28;19925;-73
2022/11/14 01:57:51;;;;;;;18.25;12.20;;;;;;;3.67;86.72;101408.34;5015328;28;20047;-73
2022/11/14 02:00:37;;;;;;;18.45;12.57;;;;;;;3.64;86.74;101403.13;5011622;28;20038;-73
2022/11/14 02:03:23;;;;;;;20.58;13.23;;;;;;;3.62;86.82;101400.47;5009665;28;20042;-75
2022/11/14 02:06:18;;;;;;;19.73;13.48;;;;;;;3.61;87.13;101393.56;5008696;28;20537;-72
2022/11/14 02:09:06;;;;;;;;;;;;;;;3.55;87.30;101389.16;5022958;28;20550;-73
2022/11/14 02:11:55;;;;;;;21.45;14.05;;;;;;;3.50;87.24;101380.41;5024740;28;19932;-73
2022/11/14 02:14:44;;;;;;;19.05;13.15;;;;;;;3.51;87.50;101376.94;5012318;28;20046;-73
2022/11/14 02:17:31;;;;;;;20.92;14.23;;;;;;;3.47;87.46;101369.09;5015803;28;20091;-73
2022/11/14 02:20:27;;;;;;;20.13;13.30;;;;;;;3.44;87.52;101371.66;4998588;28;20125;-73
2022/11/14 02:23:14;;;;;;;20.48;14.13;;;;;;;3.38;87.57;101376.00;5013543;28;20137;-73
2022/11/14 02:26:00;;;;;;;23.00;14.50;;;;;;;3.34;87.79;101374.22;5011149;28;20156;-73
2022/11/14 02:28:47;;;;;;;22.17;14.45;;;;;;;3.33;87.90;101377.66;5009729;28;20049;-73
2022/11/14 02:31:33;;;;;;;24.05;15.38;;;;;;;3.30;88.07;101371.56;5019126;28;20098;-73
2022/11/14 02:34:20;;;;;;;23.45;15.10;;;;;;;3.31;88.25;101358.53;5014681;28;20078;-72
2022/11/14 02:37:07;;;;;;;23.67;15.30;;;;;;;3.25;88.27;101354.19;5012198;28;20045;-73
2022/11/14 02:39:52;;;;;;;25.50;15.30;;;;;;;3.23;88.45;101352.41;5009475;28;20050;-73
2022/11/14 02:42:38;;;;;;;21.98;15.50;;;;;;;3.17;88.60;101348.00;5007219;28;20042;-72
2022/11/14 02:45:25;;;;;;;26.63;16.25;;;;;;;3.13;88.55;101353.19;5013941;28;20042;-72
2022/11/14 02:48:10;;;;;;;24.27;15.75;;;;;;;3.11;88.73;101353.19;5007032;28;20216;-72
2022/11/14 02:50:56;;;;;;;26.00;16.00;;;;;;;3.07;89.01;101349.66;5004748;28;20050;-73
2022/11/14 02:53:42;;;;;;;25.73;15.85;;;;;;;3.07;89.09;101354.88;5010467;28;20078;-72
2022/11/14 02:56:28;;;;;;;25.73;15.93;;;;;;;3.03;89.00;101347.88;5006217;28;20046;-73
2022/11/14 02:59:13;;;;;;;26.05;16.10;;;;;;;3.03;89.10;101349.63;5010104;28;20046;-74
2022/11/14 03:01:59;;;;;;;26.17;16.17;;;;;;;3.02;89.15;101340.06;4999478;28;20515;-73
2022/11/14 03:04:45;;;;;;;29.20;16.85;;;;;;;3.03;89.49;101337.47;5014929;28;20066;-72
2022/11/14 03:07:31;;;;;;;27.45;17.13;;;;;;;3.03;89.65;101339.22;5012003;28;20042;-73
2022/11/14 03:10:17;;;;;;;26.73;17.30;;;;;;;3.01;89.70;101341.78;5003585;28;20038;-71
2022/11/14 03:13:03;;;;;;;26.88;16.17;;;;;;;2.99;89.89;101337.44;5002191;28;20066;-71
2022/11/14 03:15:48;;;;;;;24.88;16.90;;;;;;;2.94;89.76;101329.56;4997911;28;20046;-74
2022/11/14 03:18:35;;;;;;;25.80;16.35;;;;;;;2.92;89.97;101332.19;5011878;28;20142;-74
2022/11/14 03:21:22;;;;;;;26.65;16.77;;;;;;;2.92;90.14;101336.50;5014433;28;20138;-74
2022/11/14 03:24:08;;;;;;;28.52;17.08;;;;;;;2.85;90.20;101330.34;5008110;28;20623;-74
2022/11/14 03:26:53;;;;;;;26.23;16.80;;;;;;;2.83;90.34;101329.47;5010949;28;20038;-74
2022/11/14 03:29:39;;;;;;;25.77;16.85;;;;;;;2.80;90.61;101326.84;5006161;28;20046;-74
2022/11/14 03:32:25;;;;;;;33.25;18.20;;;;;;;2.77;90.66;101330.28;4997986;28;20397;-73
2022/11/14 03:35:11;;;;;;;33.65;17.55;;;;;;;2.74;90.65;101326.78;5009794;28;20149;-71
2022/11/14 03:37:56;;;;;;;27.63;17.58;;;;;;;2.71;90.62;101325.00;5011898;28;20061;-71
2022/11/14 03:40:43;;;;;;;26.30;16.90;;;;;;;2.67;90.37;101324.97;5012496;28;20038;-71
2022/11/14 03:43:33;;;;;;;31.33;19.10;;;;;;;2.67;90.36;101331.06;5009947;28;20101;-70
2022/11/14 03:46:19;;;;;;;32.13;18.45;;;;;;;2.66;90.60;101329.31;5009798;28;20621;-70
2022/11/14 03:49:05;;;;;;;26.38;17.52;;;;;;;2.64;90.79;101334.50;5009903;28;20053;-69
2022/11/14 03:51:51;;;;;;;28.50;18.55;;;;;;;2.59;90.57;101327.50;5016441;28;20050;-70
2022/11/14 03:54:37;;;;;;;30.67;17.60;;;;;;;2.56;90.49;101335.28;5014696;28;20526;-69
2022/11/14 03:57:23;;;;;;;31.95;18.52;;;;;;;2.53;90.59;101324.81;5008417;28;20046;-69
2022/11/14 04:00:11;;;;;;;27.52;16.92;;;;;;;2.48;90.41;101322.19;5024722;28;20053;-69
2022/11/14 04:02:57;;;;;;;27.55;17.20;;;;;;;2.39;90.10;101320.34;5005358;28;20057;-69
2022/11/14 04:05:45;;;;;;;25.67;17.08;;;;;;;2.33;89.92;101315.97;5005502;28;20043;-69
2022/11/14 04:08:30;;;;;;;26.27;17.48;;;;;;;2.26;89.79;101311.53;5010811;28;20121;-69
2022/11/14 04:11:18;;;;;;;27.92;17.35;;;;;;;2.22;89.57;101314.06;5014206;28;20144;-69
2022/11/14 04:14:04;;;;;;;28.52;16.80;;;;;;;2.16;89.82;101300.16;5008285;28;20050;-69
2022/11/14 04:16:50;;;;;;;25.23;16.38;;;;;;;2.13;89.67;101307.06;5009321;28;20088;-69
2022/11/14 04:19:35;;;;;;;27.55;17.48;;;;;;;2.09;89.73;101303.50;5010389;28;20082;-69
2022/11/14 04:22:21;;;;;;;30.23;18.70;;;;;;;2.08;89.87;101308.72;5013985;28;20789;-70
2022/11/14 04:25:08;;;;;;;31.35;18.42;;;;;;;2.01;89.84;101293.03;5009806;28;20112;-70
2022/11/14 04:27:54;;;;;;;32.90;18.05;;;;;;;1.98;89.96;101300.78;5012490;28;20211;-70
2022/11/14 04:30:40;;;;;;;30.90;18.13;;;;;;;1.93;89.84;101306.78;5009289;28;20042;-70
2022/11/14 04:33:26;;;;;;;34.25;19.33;;;;;;;1.90;89.79;101306.72;5011868;28;20038;-70
2022/11/14 04:36:12;;;;;;;31.40;19.30;;;;;;;1.85;89.82;101301.47;5015800;28;20038;-70
2022/11/14 04:38:58;;;;;;;32.72;18.92;;;;;;;1.84;90.01;101297.13;5006636;28;20516;-70
2022/11/14 04:41:43;;;;;;;32.72;18.30;;;;;;;1.83;90.01;101300.63;5015016;28;20142;-71
2022/11/14 04:44:29;;;;;;;33.38;20.15;;;;;;;1.83;90.39;101296.28;5010815;28;20523;-70
2022/11/14 04:47:15;;;;;;;35.33;20.77;;;;;;;1.84;90.75;101294.53;5011821;28;20046;-70
2022/11/14 04:50:02;;;;;;;31.95;20.15;;;;;;;1.86;90.99;101295.44;5008638;28;20046;-72
2022/11/14 04:52:52;;;;;;;36.65;20.88;;;;;;;1.89;91.52;101294.59;5017413;28;20104;-72
2022/11/14 04:55:38;;;;;;;34.10;20.95;;;;;;;1.89;91.75;101285.06;5010451;28;20137;-71
2022/11/14 04:58:24;;;;;;;34.72;19.88;;;;;;;1.87;91.94;101286.78;5006434;28;20515;-71
2022/11/14 05:01:12;;;;;;;34.53;19.75;;;;;;;1.84;91.78;101281.53;5009309;28;20126;-71
2022/11/14 05:03:57;;;;;;;34.80;20.08;;;;;;;1.82;91.71;101291.91;5015634;28;20093;-71
2022/11/14 05:06:43;;;;;;;31.95;19.25;;;;;;;1.79;91.83;101286.66;5012018;28;20169;-71
2022/11/14 05:09:29;;;;;;;35.65;20.15;;;;;;;1.78;91.94;101287.53;5010607;28;20042;-70
2022/11/14 05:12:14;;;;;;;31.23;19.00;;;;;;;1.77;92.09;101283.19;5027411;28;20547;-70
2022/11/14 05:15:01;;;;;;;34.70;21.00;;;;;;;1.77;92.34;101284.91;5011885;28;20141;-69
2022/11/14 05:17:47;;;;;;;40.53;21.83;;;;;;;1.76;92.49;101268.44;5010614;28;20726;-69
2022/11/14 05:20:32;;;;;;;35.72;21.23;;;;;;;1.78;92.45;101264.13;5012113;28;20046;-70
2022/11/14 05:23:21;;;;;;;34.20;21.15;;;;;;;1.77;92.46;101262.41;5012870;28;20053;-70
2022/11/14 05:26:11;;;;;;;36.15;21.52;;;;;;;1.79;92.57;101263.28;5011006;28;20099;-69
2022/11/14 05:28:57;;;;;;;38.05;22.10;;;;;;;1.83;92.52;101262.47;5011424;28;20120;-70
2022/11/14 05:31:43;;;;;;;34.38;21.35;;;;;;;1.86;92.54;101267.72;5006547;28;20109;-72
2022/11/14 05:34:29;;;;;;;39.38;22.40;;;;;;;1.93;92.78;101254.78;5007078;28;20052;-72
2022/11/14 05:37:14;;;;;;;35.05;21.13;;;;;;;1.99;92.83;101252.25;5016059;28;20549;-71
2022/11/14 05:40:01;;;;;;;35.08;22.15;;;;;;;2.02;92.88;101257.47;5011199;28;20186;-71
2022/11/14 05:42:46;;;;;;;38.30;22.05;;;;;;;2.08;92.89;101254.09;5011456;28;20057;-73
2022/11/14 05:45:33;;;;;;;36.03;22.73;;;;;;;2.16;93.49;101252.44;5011447;28;20046;-70
2022/11/14 05:48:19;;;;;;;36.90;22.33;;;;;;;2.38;94.15;101248.34;5010243;28;20494;-70
2022/11/14 05:51:08;;;;;;;37.60;21.67;;;;;;;2.54;94.56;101238.06;5003988;28;20516;-70
2022/11/14 05:53:54;;;;;;;39.38;23.13;;;;;;;2.74;94.81;101239.13;5005605;28;20054;-70
2022/11/14 05:56:39;;;;;;;36.65;20.88;;;;;;;2.79;94.35;101232.25;5007162;28;20047;-70
2022/11/14 05:59:26;;;;;;;33.17;20.75;;;;;;;2.91;94.43;101228.84;5006228;28;20042;-70
2022/11/14 06:02:12;;;;;;;34.35;20.58;;;;;;;3.00;94.17;101235.84;4992095;28;20043;-70
2022/11/14 06:04:58;;;;;;;31.48;18.35;;;;;;;3.09;94.02;101227.22;5012560;28;20042;-70
2022/11/14 06:07:45;;;;;;;36.90;21.20;;;;;;;3.17;93.88;101224.69;5004381;28;20053;-70
2022/11/14 06:10:35;;;;;;;32.30;19.63;;;;;;;3.23;93.70;101216.88;5012335;28;20129;-70
2022/11/14 06:13:23;;;;;;;30.80;18.23;;;;;;;3.20;92.65;101228.19;5011770;28;20610;-71
2022/11/14 06:16:13;;;;;;;29.23;18.35;;;;;;;3.20;91.95;101219.50;5018401;28;20443;-71
2022/11/14 06:18:59;;;;;;;28.17;17.65;;;;;;;3.19;91.46;101212.53;5006859;28;20073;-70
2022/11/14 06:21:44;;;;;;;28.67;17.30;;;;;;;3.17;91.06;101219.47;5011363;28;20570;-70
2022/11/14 06:24:30;;;;;;;25.17;16.27;;;;;;;3.21;90.85;101223.81;5005416;28;20471;-70
2022/11/14 06:27:16;;;;;;;26.73;17.17;;;;;;;3.22;90.34;101222.97;5007733;28;20149;-71
2022/11/14 06:30:03;;;;;;;27.17;18.02;;;;;;;3.19;89.46;101220.34;5005210;28;20052;-71
2022/11/14 06:32:49;;;;;;;28.40;17.80;;;;;;;2.99;89.07;101233.22;5009865;28;20049;-70
2022/11/14 06:35:35;;;;;;;30.50;19.10;;;;;;;2.76;89.05;101237.41;5008063;28;20046;-71
2022/11/14 06:38:21;;;;;;;29.52;18.27;;;;;;;2.58;89.32;101238.13;5009153;28;20058;-71
2022/11/14 06:41:15;;;;;;;32.47;20.45;;;;;;;2.45;89.59;101233.63;5008412;28;20177;-69
2022/11/14 06:44:00;;;;;;;32.35;20.23;;;;;;;2.36;90.00;101233.56;5009194;28;20573;-70
2022/11/14 06:46:46;;;;;;;33.15;20.90;;;;;;;2.28;90.27;101242.16;5010278;28;20050;-70
2022/11/14 06:49:32;;;;;;;32.97;21.02;;;;;;;2.21;90.33;101242.06;5009976;28;20051;-71
2022/11/14 06:52:26;;;;;;;33.08;20.17;;;;;;;2.14;90.52;101244.63;5008720;28;20046;-71
2022/11/14 06:55:11;;;;;;;37.40;20.75;;;;;;;2.10;90.74;101250.63;5010681;28;20046;-71
2022/11/14 06:57:57;;;;;;;35.58;20.65;;;;;;;2.08;90.88;101241.97;5009902;28;20601;-70
2022/11/14 07:00:44;;;;;;;36.55;21.48;;;;;;;2.08;91.16;101244.56;5010377;28;20530;-71
2022/11/14 07:03:29;;;;;;;37.17;21.42;;;;;;;2.08;91.28;101254.09;5010063;28;20047;-71
2022/11/14 07:06:23;;;;;;;33.40;20.73;;;;;;;2.09;91.48;101248.88;5010277;28;20046;-71
2022/11/14 07:09:10;;;;;;;34.97;21.85;;;;;;;2.10;91.74;101247.19;5010364;28;20050;-71
2022/11/14 07:11:56;;;;;;;35.13;21.15;;;;;;;2.13;92.07;101253.28;5010004;28;20058;-71
2022/11/14 07:14:41;;;;;;;35.25;22.02;;;;;;;2.15;92.15;101246.38;5009360;28;20507;-71
2022/11/14 07:17:27;;;;;;;37.92;22.48;;;;;;;2.20;91.83;101249.03;5010681;28;20839;-71
2022/11/14 07:20:19;;;;;;;38.17;22.50;;;;;;;2.19;91.96;101243.81;5011105;28;20495;-70
2022/11/14 07:23:04;;;;;;;42.63;22.63;;;;;;;2.17;91.79;101236.88;5010117;28;20043;-70
2022/11/14 07:25:50;;;;;;;38.60;21.58;;;;;;;2.20;91.65;101241.22;5010530;28;20543;-71
2022/11/14 07:28:42;;;;;;;35.85;21.98;;;;;;;2.22;91.76;101238.63;5010297;28;20042;-71
2022/11/14 07:31:31;;;;;;;33.55;21.23;;;;;;;2.27;91.79;101242.16;5009724;28;20129;-71
2022/11/14 07:34:17;;;;;;;34.10;20.10;;;;;;;2.35;91.71;101243.09;5009979;28;20135;-71
2022/11/14 07:37:04;;;;;;;31.52;19.73;;;;;;;2.42;91.74;101237.09;4991330;28;20053;-71
2022/11/14 07:39:51;;;;;;;34.97;19.02;;;;;;;2.52;91.74;101237.19;5007261;28;20050;-70
2022/11/14 07:42:37;;;;;;;29.65;19.67;;;;;;;2.56;91.71;101238.97;5010809;28;20038;-71
2022/11/14 07:45:22;;;;;;;32.72;20.08;;;;;;;2.62;91.50;101242.50;5009936;28;20050;-70
2022/11/14 07:48:09;;;;;;;30.80;19.17;;;;;;;2.69;91.28;101235.63;5010692;28;20153;-69
2022/11/14 07:51:05;;;;;;;29.60;18.90;;;;;;;2.75;91.31;101240.88;4991208;28;20046;-69
2022/11/14 07:53:55;;;;;;;32.05;19.10;;;;;;;2.83;91.13;101247.88;5009079;28;20197;-72
2022/11/14 07:56:41;;;;;;;29.95;18.75;;;;;;;2.89;91.09;101246.19;5013503;28;20690;-69
2022/11/14 07:59:26;;;;;;;31.70;18.45;;;;;;;2.98;90.80;101242.78;5013707;28;20058;-69
2022/11/14 08:02:14;;;;;;;29.63;18.85;;;;;;;3.06;90.91;101245.44;5013504;28;20038;-69
2022/11/14 08:05:00;;;;;;;31.60;18.13;;;;;;;3.09;90.57;101235.94;5011607;28;20042;-69
2022/11/14 08:07:45;;;;;;;28.92;18.55;;;;;;;3.18;90.74;101234.25;5013926;28;20077;-69
2022/11/14 08:10:31;;;;;;;30.48;17.75;;;;;;;3.24;90.33;101226.44;5012618;28;20055;-69
2022/11/14 08:13:18;;;;;;;27.20;16.80;;;;;;;3.33;90.20;101218.69;5013752;28;20089;-70
2022/11/14 08:16:17;;;;;;;25.55;16.52;;;;;;;3.45;89.95;101217.00;5012500;28;20050;-69
2022/11/14 08:19:03;;;;;;;25.27;16.00;;;;;;;3.55;89.91;101218.81;5000488;28;20046;-70
2022/11/14 08:21:49;;;;;;;26.98;15.13;;;;;;;3.69;89.58;101213.66;5013474;28;20042;-71
2022/11/14 08:24:35;;;;;;;23.02;15.23;;;;;;;3.82;88.93;101211.94;5013575;28;20117;-69
2022/11/14 08:27:20;;;;;;;22.02;15.18;;;;;;;3.92;88.53;101215.47;5012993;28;20053;-69
2022/11/14 08:30:07;;;;;;;25.95;15.90;;;;;;;4.01;88.30;101221.59;5013151;28;20611;-69
2022/11/14 08:32:55;;;;;;;23.15;14.45;;;;;;;4.13;88.21;101218.16;5009302;28;20046;-69
2022/11/14 08:35:41;;;;;;;24.83;15.55;;;;;;;4.21;87.77;101199.91;5008488;28;20066;-69
2022/11/14 08:38:27;;;;;;;25.08;15.15;;;;;;;4.30;87.49;101201.63;5013203;28;20050;-70
2022/11/14 08:41:13;;;;;;;26.02;15.85;;;;;;;4.39;86.91;101200.78;5013141;28;20046;-69
2022/11/14 08:43:59;;;;;;;25.95;16.15;;;;;;;4.47;86.79;101201.66;5013096;28;20160;-70
2022/11/14 08:46:45;;;;;;;23.98;14.32;;;;;;;4.54;86.94;101206.00;5013034;28;20045;-70
2022/11/14 08:49:30;;;;;;;21.90;14.38;;;;;;;4.62;86.53;101193.84;5011445;28;20130;-70
2022/11/14 08:52:16;;;;;;;22.83;14.02;;;;;;;4.71;86.26;101192.97;5012658;28;20042;-70
2022/11/14 08:55:01;;;;;;;21.80;14.02;;;;;;;4.82;85.85;101188.59;5012907;28;20068;-70
2022/11/14 08:57:47;;;;;;;24.40;14.18;;;;;;;4.90;85.83;101180.75;5013145;28;20114;-70
2022/11/14 09:00:34;;;;;;;23.35;13.57;;;;;;;5.00;85.96;101184.22;5012598;28;20152;-70
2022/11/14 09:03:20;;;;;;;22.60;13.85;;;;;;;5.11;85.49;101184.22;5012737;28;20061;-70
2022/11/14 09:06:06;;;;;;;22.33;13.13;;;;;;;5.19;85.44;101182.44;5010876;28;20113;-71
2022/11/14 09:08:52;;;;;;;17.60;11.85;;;;;;;5.28;85.40;101179.81;5012929;28;20038;-70
2022/11/14 09:11:37;;;;;;;20.50;12.77;;;;;;;5.40;85.16;101170.19;5012520;28;20531;-70
2022/11/14 09:14:23;;;;;;;23.77;12.88;;;;;;;5.49;84.80;101170.16;5012740;28;20052;-70
2022/11/14 09:17:09;;;;;;;18.80;12.15;;;;;;;5.59;84.82;101165.75;5012325;28;20054;-70
2022/11/14 09:19:54;;;;;;;22.13;12.98;;;;;;;5.71;84.61;101167.44;5013143;28;20043;-70
2022/11/14 09:22:41;;;;;;;19.58;11.63;;;;;;;5.84;84.01;101155.16;5012816;28;20046;-70
2022/11/14 09:25:28;;;;;;;17.25;11.73;;;;;;;5.94;83.56;101169.94;5012495;28;20046;-70
2022/11/14 09:28:13;;;;;;;17.63;11.00;;;;;;;6.05;83.13;101172.53;5012869;28;20117;-70
2022/11/14 09:31:06;;;;;;;18.23;10.98;;;;;;;6.12;82.35;101168.09;5011997;28;20065;-70
2022/11/14 09:33:54;;;;;;;18.83;11.32;;;;;;;6.18;82.87;101166.31;5012615;28;20050;-70
2022/11/14 09:36:40;;;;;;;17.85;12.18;;;;;;;6.31;82.85;101174.09;5012189;28;20464;-70
2022/11/14 09:39:25;;;;;;;20.38;12.20;;;;;;;6.40;83.16;101166.16;5012783;28;20142;-70
2022/11/14 09:43:23;;;;;;;18.23;11.02;;;;;;;6.56;82.12;101158.19;5012744;28;20050;-70
2022/11/14 09:46:37;;;;;;;18.58;11.45;;;;;;;6.63;81.63;101162.50;4918433;29;20048;-71
2022/11/14 09:49:42;;;;;;;16.45;10.85;;;;;;;6.72;82.08;101170.28;4943920;28;20060;-70
2022/11/14 09:52:39;;;;;;;20.00;11.98;;;;;;;6.82;81.91;101163.16;5012357;28;20169;-70
2022/11/14 09:55:32;;;;;;;20.67;12.40;;;;;;;6.94;81.73;101152.56;5012540;28;20043;-71
2022/11/14 09:58:22;;;;;;;19.98;12.65;;;;;;;7.05;81.92;101156.84;5011527;28;20053;-70
2022/11/14 10:01:41;;;;;;;21.23;12.77;;;;;;;7.17;81.52;101151.47;5009868;28;20113;-71
2022/11/14 10:05:13;;;;;;;19.77;12.38;;;;;;;7.28;81.34;101152.22;5012323;28;20146;-70
2022/11/14 10:08:32;;;;;;;21.13;13.10;;;;;;;7.37;81.24;101148.63;5011986;28;20074;-71
2022/11/14 10:11:58;;;;;;;22.85;13.30;;;;;;;7.49;81.30;101147.59;5011190;28;20042;-70
2022/11/14 10:15:25;;;;;;;22.40;13.95;;;;;;;7.66;80.91;101139.50;5010009;28;20046;-70
2022/11/14 10:19:02;;;;;;;23.92;13.60;;;;;;;7.77;80.70;101128.84;5011915;28;20065;-70
2022/11/14 10:22:23;;;;;;;22.35;14.32;;;;;;;7.93;79.94;101140.00;5011315;28;20527;-70
2022/11/14 10:25:47;;;;;;;25.77;14.93;;;;;;;7.98;79.96;101130.31;4993301;28;20520;-70
2022/11/14 10:28:47;;;;;;;24.80;14.88;;;;;;;8.04;80.43;101140.72;5011511;28;20125;-70
2022/11/14 10:32:14;;;;;;;23.85;14.43;;;;;;;8.18;79.71;101139.66;5008771;28;20523;-70
2022/11/14 10:35:24;;;;;;;25.83;13.90;;;;;;;8.29;80.31;101136.84;4985624;28;20061;-70
2022/11/14 10:38:29;;;;;;;24.65;14.70;;;;;;;8.40;80.25;101129.66;5011197;28;20056;-70
2022/11/14 10:41:16;;;;;;;24.73;14.70;;;;;;;8.49;80.13;101137.41;5011469;28;20542;-71
2022/11/14 10:44:33;;;;;;;22.52;14.13;;;;;;;8.58;78.55;101130.25;5007292;28;20069;-71
2022/11/14 10:47:23;;;;;;;24.10;14.93;;;;;;;8.56;78.17;101119.78;4991716;28;20050;-70
2022/11/14 10:50:23;;;;;;;24.98;15.02;;;;;;;8.51;77.77;101129.50;4992444;28;20058;-70
2022/11/14 10:53:30;;;;;;;23.52;14.75;;;;;;;8.42;78.51;101127.00;5008587;28;20053;-71
2022/11/14 10:56:16;;;;;;;23.90;14.90;;;;;;;8.32;79.04;101136.81;5011243;28;20066;-70
2022/11/14 10:59:02;;;;;;;27.75;15.02;;;;;;;8.25;79.15;101133.41;5010686;28;20042;-70
2022/11/14 11:01:52;;;;;;;24.35;14.60;;;;;;;8.22;78.91;101133.44;5009926;28;20065;-71
2022/11/14 11:04:44;;;;;;;22.90;14.35;;;;;;;8.17;78.77;101127.41;5011460;28;20146;-70
2022/11/14 11:11:30;;;;;;;24.85;15.75;;;;;;;8.07;79.12;101121.41;4984779;28;20069;-70
2022/11/14 11:14:18;;;;;;;27.20;15.98;;;;;;;8.03;79.51;101107.47;5009114;28;20559;-70
2022/11/14 11:17:09;;;;;;;26.98;15.30;;;;;;;8.05;79.32;101113.56;5010954;28;20636;-71
2022/11/14 11:20:22;;;;;;;31.42;16.55;;;;;;;8.09;79.63;101115.25;5010743;28;20042;-70
2022/11/14 11:23:10;;;;;;;24.48;14.68;;;;;;;8.07;79.41;101111.81;5010862;28;20053;-70
2022/11/14 11:26:17;;;;;;;25.33;15.00;;;;;;;8.08;78.91;101104.78;5011116;28;20500;-70
2022/11/14 11:29:07;;;;;;;27.98;16.80;;;;;;;8.04;78.47;101111.84;5013510;28;20388;-70
2022/11/14 11:31:57;;;;;;;26.27;16.00;;;;;;;8.00;78.83;101104.03;5013355;28;20471;-70
2022/11/14 11:34:43;;;;;;;28.02;16.55;;;;;;;7.99;78.81;101102.28;5014121;28;20046;-71
2022/11/14 11:37:56;;;;;;;25.90;15.43;;;;;;;7.93;79.02;101096.25;5006909;28;20043;-71
2022/11/14 11:40:46;;;;;;;24.05;14.95;;;;;;;7.87;79.20;101095.47;5002580;28;20043;-71
2022/11/14 11:44:03;;;;;;;25.02;15.77;;;;;;;7.87;79.16;101098.09;5014440;28;20038;-71
2022/11/14 11:47:00;;;;;;;26.15;15.48;;;;;;;7.84;78.46;101096.38;5012248;28;20046;-72
2022/11/14 11:49:51;;;;;;;26.40;15.20;;;;;;;7.78;78.67;101094.72;4998417;28;20049;-71
2022/11/14 11:52:59;;;;;;;24.13;14.68;;;;;;;7.76;79.13;101091.25;4994132;28;20042;-71
2022/11/14 11:56:03;;;;;;;29.92;17.95;;;;;;;7.74;78.88;101092.16;5004934;28;20042;-71
2022/11/14 11:58:53;;;;;;;35.88;23.80;;;;;;;7.76;78.84;101090.38;5008757;28;20054;-71
2022/11/14 12:01:39;;;;;;;31.75;20.48;;;;;;;7.72;79.16;101094.81;5012911;28;20126;-71
2022/11/14 12:04:25;;;;;;;29.52;17.10;;;;;;;7.75;79.04;101078.13;5013226;28;20522;-71
2022/11/14 12:07:18;;;;;;;25.92;15.77;;;;;;;7.73;78.57;101083.41;5003422;28;20049;-72
2022/11/14 12:10:21;;;;;;;26.67;15.77;;;;;;;7.71;79.23;101079.94;5013536;28;20046;-71
2022/11/14 12:14:00;;;;;;;27.75;15.82;;;;;;;7.68;79.45;101074.72;5013164;28;20404;-72
2022/11/14 12:17:19;;;;;;;27.10;15.52;;;;;;;7.71;79.43;101079.09;4966399;28;20512;-72
2022/11/14 12:20:39;;;;;;;40.97;16.80;;;;;;;7.71;79.65;101069.44;4998863;28;20050;-71
2022/11/14 12:23:49;;;;;;;33.72;16.10;;;;;;;7.75;79.89;101055.41;5003407;28;20054;-71
2022/11/14 12:27:15;;;;;;;29.40;16.58;;;;;;;7.81;80.22;101059.69;5013071;28;20483;-71
2022/11/14 12:30:04;;;;;;;;;;;;;;;7.83;79.98;101055.28;5000113;28;20046;-71
2022/11/14 12:33:14;;;;;;;29.55;15.38;;;;;;;7.89;79.86;101051.69;5013838;28;19932;-71
2022/11/14 12:36:09;;;;;;;30.65;15.68;;;;;;;7.95;80.15;101046.34;5013601;28;20535;-71
2022/11/14 12:38:55;;;;;;;25.75;14.82;;;;;;;8.04;80.16;101034.81;5012861;28;20046;-71
2022/11/14 12:41:41;;;;;;;140.52;68.80;;;;;;;8.12;80.20;101025.06;5011742;28;20062;-71
2022/11/14 12:44:28;;;;;;;32.58;18.98;;;;;;;8.21;79.60;101027.53;5011713;28;20045;-72
2022/11/14 12:47:21;;;;;;;38.25;22.25;;;;;;;8.24;79.21;101029.22;5009763;28;20042;-72
2022/11/14 12:50:39;;;;;;;27.73;16.45;;;;;;;8.29;79.07;101031.78;5008136;28;20058;-71
2022/11/14 12:53:36;;;;;;;27.05;16.98;;;;;;;8.32;79.05;101011.56;5010167;28;20051;-71
2022/11/14 12:56:29;;;;;;;27.63;14.50;;;;;;;8.37;79.12;101000.97;5009933;28;20115;-71
2022/11/14 12:59:37;;;;;;;28.75;15.02;;;;;;;8.42;79.33;101008.78;5009230;28;20117;-72
2022/11/14 13:02:54;;;;;;;31.50;18.75;;;;;;;8.44;78.78;101002.63;5011223;28;20034;-72
2022/11/14 13:06:21;;;;;;;37.42;17.15;;;;;;;8.45;78.94;100992.97;5011406;28;20054;-72
2022/11/14 13:09:52;;;;;;;28.38;15.45;;;;;;;8.47;78.90;100994.69;5000760;28;20052;-70
2022/11/14 13:22:39;;;;;;;23.30;12.77;;;;;;;8.44;78.69;100992.09;5009201;28;20494;-71